createdAt,value
2018-10-07T00:00:12.417Z,15.70
2018-10-07T00:00:51.169Z,14.68
2018-10-07T00:01:28.984Z,13.78
2018-10-07T00:02:06.974Z,14.75
2018-10-07T00:02:45.047Z,15.03
2018-10-07T00:03:23.138Z,15.32
2018-10-07T00:04:01.312Z,15.58
2018-10-07T00:04:39.459Z,15.60
2018-10-07T00:05:17.484Z,15.15
2018-10-07T00:05:55.476Z,15.10
2018-10-07T00:06:33.779Z,15.18
2018-10-07T00:07:11.833Z,14.50
2018-10-07T00:07:50.117Z,15.85
2018-10-07T00:08:28.053Z,15.25
2018-10-07T00:09:06.449Z,14.35
2018-10-07T00:09:44.351Z,15.13
2018-10-07T00:10:22.878Z,16.00
2018-10-07T00:11:01.179Z,15.32
2018-10-07T00:11:39.676Z,14.30
2018-10-07T00:12:18.379Z,13.53
2018-10-07T00:12:56.298Z,14.63
2018-10-07T00:13:34.423Z,14.90
2018-10-07T00:14:12.844Z,15.68
2018-10-07T00:14:50.927Z,14.18
2018-10-07T00:15:28.843Z,14.60
2018-10-07T00:16:06.974Z,15.40
2018-10-07T00:16:44.937Z,15.00
2018-10-07T00:17:22.914Z,13.72
2018-10-07T00:18:00.832Z,14.63
2018-10-07T00:18:40.090Z,15.50
2018-10-07T00:19:19.383Z,14.00
2018-10-07T00:19:59.195Z,14.68
2018-10-07T00:20:38.939Z,14.93
2018-10-07T00:21:17.033Z,14.68
2018-10-07T00:21:55.801Z,15.45
2018-10-07T00:22:35.061Z,14.10
2018-10-07T00:23:13.976Z,15.05
2018-10-07T00:23:52.839Z,16.10
2018-10-07T00:24:31.215Z,14.58
2018-10-07T00:25:09.383Z,16.10
2018-10-07T00:25:47.379Z,14.78
2018-10-07T00:26:26.111Z,16.10
2018-10-07T00:27:04.284Z,14.47
2018-10-07T00:27:42.927Z,15.45
2018-10-07T00:28:21.332Z,15.68
2018-10-07T00:28:59.505Z,15.55
2018-10-07T00:29:37.597Z,15.05
2018-10-07T00:33:17.277Z,15.30
2018-10-07T00:33:55.783Z,16.37
2018-10-07T00:34:33.645Z,15.90
2018-10-07T00:35:12.415Z,16.70
2018-10-07T00:35:50.890Z,16.50
2018-10-07T00:36:28.809Z,17.12
2018-10-07T00:37:06.799Z,15.93
2018-10-07T00:37:44.764Z,15.78
2018-10-07T00:38:22.950Z,16.23
2018-10-07T00:39:01.144Z,16.30
2018-10-07T00:39:40.220Z,17.02
2018-10-07T00:40:18.313Z,16.00
2018-10-07T00:40:57.371Z,17.12
2018-10-07T00:41:35.374Z,15.80
2018-10-07T00:42:13.356Z,16.60
2018-10-07T00:42:52.076Z,16.17
2018-10-07T00:43:30.277Z,16.95
2018-10-07T00:44:08.212Z,16.48
2018-10-07T00:44:46.075Z,16.52
2018-10-07T00:45:23.860Z,15.63
2018-10-07T00:46:01.838Z,16.27
2018-10-07T00:46:41.375Z,16.03
2018-10-07T00:47:19.363Z,15.65
2018-10-07T00:47:57.353Z,15.80
2018-10-07T00:48:35.327Z,15.83
2018-10-07T00:49:13.199Z,14.53
2018-10-07T00:49:51.083Z,14.83
2018-10-07T00:50:28.993Z,14.30
2018-10-07T00:51:06.922Z,15.23
2018-10-07T00:51:44.767Z,14.93
2018-10-07T00:52:22.675Z,14.15
2018-10-07T00:53:00.809Z,14.33
2018-10-07T00:53:39.249Z,14.23
2018-10-07T00:54:17.367Z,13.22
2018-10-07T00:54:55.242Z,15.13
2018-10-07T00:55:33.348Z,14.83
2018-10-07T00:56:11.741Z,13.55
2018-10-07T00:56:49.694Z,14.75
2018-10-07T00:57:27.552Z,14.07
2018-10-07T00:58:05.522Z,13.80
2018-10-07T00:58:43.453Z,13.70
2018-10-07T00:59:21.410Z,14.78
2018-10-07T00:59:59.312Z,14.55
2018-10-07T01:00:37.265Z,13.87
2018-10-07T01:01:16.105Z,14.55
2018-10-07T01:01:55.026Z,15.38
2018-10-07T01:02:33.713Z,14.18
2018-10-07T01:03:11.648Z,13.83
2018-10-07T01:03:49.644Z,14.07
2018-10-07T01:04:27.557Z,14.60
2018-10-07T01:05:05.483Z,13.45
2018-10-07T01:05:43.424Z,14.40
2018-10-07T01:06:21.350Z,13.05
2018-10-07T01:06:59.243Z,13.28
2018-10-07T01:07:37.167Z,13.18
2018-10-07T01:08:15.057Z,13.10
2018-10-07T01:08:53.170Z,13.50
2018-10-07T01:09:31.081Z,13.30
2018-10-07T01:10:10.659Z,12.68
2018-10-07T01:10:50.627Z,13.55
2018-10-07T01:11:29.932Z,13.53
2018-10-07T01:12:08.840Z,13.15
2018-10-07T01:12:46.931Z,12.75
2018-10-07T01:13:25.746Z,13.10
2018-10-07T01:14:03.710Z,14.00
2018-10-07T01:14:42.627Z,13.33
2018-10-07T01:15:20.761Z,13.85
2018-10-07T01:15:58.648Z,13.53
2018-10-07T01:16:36.669Z,12.70
2018-10-07T01:17:14.837Z,12.75
2018-10-07T01:17:52.788Z,13.58
2018-10-07T01:18:30.693Z,13.30
2018-10-07T01:19:08.653Z,12.75
2018-10-07T01:19:47.640Z,12.30
2018-10-07T01:20:25.538Z,12.07
2018-10-07T01:21:04.286Z,12.47
2018-10-07T01:21:42.315Z,12.75
2018-10-07T01:22:20.309Z,13.05
2018-10-07T01:22:58.352Z,13.35
2018-10-07T01:23:36.269Z,11.20
2018-10-07T01:24:14.367Z,11.93
2018-10-07T01:24:52.394Z,12.75
2018-10-07T01:25:30.472Z,11.93
2018-10-07T01:26:08.310Z,12.43
2018-10-07T01:26:46.218Z,12.50
2018-10-07T01:27:24.283Z,12.25
2018-10-07T01:28:02.229Z,11.80
2018-10-07T01:28:40.163Z,11.10
2018-10-07T01:29:19.988Z,11.73
2018-10-07T01:29:57.967Z,11.25
2018-10-07T01:30:35.966Z,11.17
2018-10-07T01:31:13.954Z,11.90
2018-10-07T01:31:51.837Z,11.05
2018-10-07T01:32:29.764Z,11.28
2018-10-07T01:33:09.267Z,10.85
2018-10-07T01:33:47.365Z,11.10
2018-10-07T01:34:26.587Z,12.33
2018-10-07T01:35:04.548Z,11.18
2018-10-07T01:35:42.693Z,11.73
2018-10-07T01:36:22.199Z,11.78
2018-10-07T01:37:00.316Z,14.10
2018-10-07T01:37:38.489Z,11.40
2018-10-07T01:38:16.995Z,11.40
2018-10-07T01:38:55.557Z,12.30
2018-10-07T01:39:33.600Z,12.53
2018-10-07T01:40:12.143Z,13.53
2018-10-07T01:40:50.833Z,13.80
2018-10-07T01:41:28.711Z,13.83
2018-10-07T01:42:06.706Z,15.35
2018-10-07T01:42:44.631Z,16.63
2018-10-07T01:43:22.559Z,19.02
2018-10-07T01:44:01.364Z,17.15
2018-10-07T01:44:39.301Z,21.33
2018-10-07T01:45:17.439Z,17.98
2018-10-07T01:45:55.491Z,16.93
2018-10-07T01:46:33.559Z,19.52
2018-10-07T01:47:11.437Z,21.37
2018-10-07T01:47:49.356Z,16.77
2018-10-07T01:48:27.310Z,16.57
2018-10-07T01:49:05.354Z,20.43
2018-10-07T01:49:44.373Z,53.23
2018-10-07T01:50:22.227Z,25.72
2018-10-07T01:51:00.335Z,16.75
2018-10-07T01:51:38.206Z,36.90
2018-10-07T01:55:17.358Z,15.75
2018-10-07T01:55:56.225Z,14.53
2018-10-07T01:56:34.161Z,14.83
2018-10-07T01:57:12.051Z,14.93
2018-10-07T01:57:50.654Z,14.75
2018-10-07T01:58:29.002Z,15.50
2018-10-07T01:59:06.913Z,14.80
2018-10-07T01:59:45.571Z,15.05
2018-10-07T02:00:23.737Z,13.88
2018-10-07T02:01:01.639Z,15.80
2018-10-07T02:01:39.479Z,16.12
2018-10-07T02:02:17.371Z,17.12
2018-10-07T02:02:55.448Z,17.02
2018-10-07T02:03:33.684Z,17.15
2018-10-07T02:04:11.632Z,16.15
2018-10-07T02:04:49.488Z,16.50
2018-10-07T02:05:27.484Z,17.92
2018-10-07T02:06:05.419Z,17.65
2018-10-07T02:06:43.340Z,15.73
2018-10-07T02:07:21.258Z,17.92
2018-10-07T02:07:59.264Z,17.10
2018-10-07T02:08:37.190Z,16.00
2018-10-07T02:09:15.175Z,16.60
2018-10-07T02:09:53.113Z,14.05
2018-10-07T02:10:31.283Z,15.45
2018-10-07T02:11:09.337Z,14.93
2018-10-07T02:11:47.228Z,13.83
2018-10-07T02:12:25.265Z,13.93
2018-10-07T02:13:03.195Z,12.50
2018-10-07T02:13:42.063Z,13.00
2018-10-07T02:14:20.020Z,12.45
2018-10-07T02:15:03.936Z,11.95
2018-10-07T02:15:41.842Z,12.53
2018-10-07T02:16:19.732Z,12.80
2018-10-07T02:16:57.653Z,12.93
2018-10-07T02:17:35.734Z,12.80
2018-10-07T02:18:13.586Z,13.98
2018-10-07T02:18:51.425Z,13.45
2018-10-07T02:19:29.317Z,12.65
2018-10-07T02:20:07.188Z,13.40
2018-10-07T02:20:45.095Z,12.20
2018-10-07T02:21:23.130Z,12.10
2018-10-07T02:22:00.965Z,12.47
2018-10-07T02:22:39.028Z,12.90
2018-10-07T02:23:17.032Z,11.90
2018-10-07T02:23:54.927Z,12.05
2018-10-07T02:24:32.864Z,11.68
2018-10-07T02:25:11.109Z,12.25
2018-10-07T02:25:49.213Z,10.77
2018-10-07T02:26:27.284Z,11.65
2018-10-07T02:27:05.342Z,11.43
2018-10-07T02:27:43.235Z,11.57
2018-10-07T02:28:21.132Z,10.80
2018-10-07T02:28:59.294Z,11.28
2018-10-07T02:29:37.421Z,12.07
2018-10-07T02:30:15.453Z,10.75
2018-10-07T02:30:53.354Z,10.68
2018-10-07T02:31:31.230Z,10.95
2018-10-07T02:32:09.674Z,11.48
2018-10-07T02:32:47.656Z,11.90
2018-10-07T02:33:25.577Z,11.35
2018-10-07T02:34:03.651Z,11.45
2018-10-07T02:34:41.634Z,11.90
2018-10-07T02:35:19.567Z,10.88
2018-10-07T02:35:57.517Z,11.30
2018-10-07T02:36:35.429Z,11.73
2018-10-07T02:37:13.391Z,11.22
2018-10-07T02:37:51.326Z,10.45
2018-10-07T02:38:29.429Z,11.43
2018-10-07T02:39:08.852Z,11.05
2018-10-07T02:40:44.949Z,11.57
2018-10-07T02:41:23.033Z,9.93
2018-10-07T02:42:05.469Z,10.60
2018-10-07T02:42:43.345Z,10.20
2018-10-07T02:43:21.326Z,10.55
2018-10-07T02:44:00.232Z,9.95
2018-10-07T02:44:39.214Z,11.33
2018-10-07T02:45:17.258Z,10.15
2018-10-07T02:45:55.084Z,10.25
2018-10-07T02:46:32.984Z,9.48
2018-10-07T02:47:11.056Z,9.35
2018-10-07T02:47:49.025Z,9.63
2018-10-07T02:48:27.014Z,10.05
2018-10-07T02:49:05.021Z,9.83
2018-10-07T02:49:42.946Z,10.50
2018-10-07T02:50:23.130Z,9.10
2018-10-07T02:51:01.098Z,10.07
2018-10-07T02:51:39.244Z,10.40
2018-10-07T03:02:49.826Z,9.48
2018-10-07T03:03:30.496Z,9.25
2018-10-07T03:04:08.616Z,9.18
2018-10-07T03:04:46.790Z,10.00
2018-10-07T03:05:24.899Z,8.60
2018-10-07T03:06:05.492Z,9.63
2018-10-07T03:06:43.431Z,9.27
2018-10-07T03:07:21.427Z,9.48
2018-10-07T03:07:59.573Z,9.50
2018-10-07T03:08:37.977Z,9.17
2018-10-07T03:09:15.949Z,9.40
2018-10-07T03:09:56.630Z,10.15
2018-10-07T03:10:34.565Z,10.15
2018-10-07T03:11:12.599Z,8.23
2018-10-07T03:11:50.579Z,9.60
2018-10-07T03:12:30.071Z,9.18
2018-10-07T03:13:08.028Z,8.95
2018-10-07T03:13:45.948Z,9.58
2018-10-07T03:14:24.001Z,8.90
2018-10-07T03:15:02.100Z,10.05
2018-10-07T03:15:40.639Z,8.55
2018-10-07T03:16:18.753Z,9.20
2018-10-07T03:16:56.745Z,9.10
2018-10-07T03:17:35.055Z,9.23
2018-10-07T03:18:14.442Z,9.33
2018-10-07T03:18:52.325Z,8.68
2018-10-07T03:19:30.347Z,9.48
2018-10-07T03:20:08.334Z,9.28
2018-10-07T03:20:47.706Z,8.57
2018-10-07T03:21:25.564Z,9.58
2018-10-07T03:22:03.506Z,8.88
2018-10-07T03:22:41.725Z,8.43
2018-10-07T03:23:19.719Z,8.68
2018-10-07T03:23:57.730Z,9.40
2018-10-07T03:24:35.941Z,8.70
2018-10-07T03:25:13.875Z,8.80
2018-10-07T03:25:51.791Z,9.48
2018-10-07T03:26:29.731Z,8.98
2018-10-07T03:27:07.672Z,10.30
2018-10-07T03:27:45.584Z,9.00
2018-10-07T03:28:23.418Z,9.58
2018-10-07T03:29:03.138Z,9.10
2018-10-07T03:29:41.280Z,10.82
2018-10-07T03:30:19.205Z,9.23
2018-10-07T03:31:00.205Z,9.48
2018-10-07T03:31:38.265Z,9.78
2018-10-07T03:32:16.606Z,10.00
2018-10-07T03:32:55.029Z,10.20
2018-10-07T03:33:32.936Z,10.10
2018-10-07T03:34:10.943Z,10.85
2018-10-07T03:34:49.578Z,10.65
2018-10-07T03:35:28.141Z,10.28
2018-10-07T03:36:06.033Z,10.63
2018-10-07T03:36:43.993Z,10.95
2018-10-07T03:37:22.961Z,10.90
2018-10-07T03:38:01.234Z,12.30
2018-10-07T03:38:39.234Z,10.50
2018-10-07T03:39:17.199Z,10.70
2018-10-07T03:39:55.908Z,10.82
2018-10-07T03:40:33.940Z,11.85
2018-10-07T03:41:12.220Z,10.82
2018-10-07T03:41:50.301Z,11.75
2018-10-07T03:42:28.243Z,11.00
2018-10-07T03:43:07.289Z,10.98
2018-10-07T03:43:46.608Z,12.55
2018-10-07T03:44:26.315Z,11.35
2018-10-07T03:45:04.212Z,11.05
2018-10-07T03:45:42.274Z,11.55
2018-10-07T03:46:21.366Z,12.40
2018-10-07T03:47:00.280Z,12.05
2018-10-07T03:47:38.254Z,10.78
2018-10-07T03:48:16.716Z,11.85
2018-10-07T03:49:03.535Z,10.70
2018-10-07T03:49:41.747Z,11.20
2018-10-07T03:50:19.786Z,11.27
2018-10-07T03:50:57.742Z,11.00
2018-10-07T03:51:35.542Z,11.03
2018-10-07T03:52:13.547Z,11.13
2018-10-07T03:52:51.524Z,10.48
2018-10-07T03:53:29.623Z,11.48
2018-10-07T03:54:07.682Z,10.48
2018-10-07T03:54:45.671Z,11.50
2018-10-07T03:55:23.624Z,12.13
2018-10-07T03:56:02.595Z,11.53
2018-10-07T03:56:40.443Z,11.80
2018-10-07T03:57:18.658Z,11.40
2018-10-07T03:57:57.509Z,11.68
2018-10-07T03:58:35.474Z,12.43
2018-10-07T03:59:13.384Z,11.80
2018-10-07T03:59:52.569Z,12.75
2018-10-07T04:00:30.491Z,13.05
2018-10-07T04:01:08.788Z,12.60
2018-10-07T04:01:46.749Z,13.58
2018-10-07T04:02:24.672Z,12.85
2018-10-07T04:03:03.605Z,14.07
2018-10-07T04:03:41.464Z,14.00
2018-10-07T04:04:19.511Z,14.15
2018-10-07T04:04:57.385Z,15.48
2018-10-07T04:05:36.019Z,15.05
2018-10-07T04:06:14.113Z,16.10
2018-10-07T04:06:52.104Z,16.65
2018-10-07T04:07:30.048Z,16.63
2018-10-07T04:08:08.129Z,16.62
2018-10-07T04:08:46.059Z,16.40
2018-10-07T04:09:24.148Z,14.35
2018-10-07T04:10:03.410Z,15.48
2018-10-07T04:10:41.338Z,14.20
2018-10-07T04:11:19.340Z,14.05
2018-10-07T04:11:57.381Z,14.80
2018-10-07T04:12:35.394Z,13.65
2018-10-07T04:13:13.260Z,12.27
2018-10-07T04:13:51.141Z,13.40
2018-10-07T04:14:29.096Z,13.37
2018-10-07T04:15:07.004Z,13.10
2018-10-07T04:15:46.005Z,13.40
2018-10-07T04:16:23.990Z,13.33
2018-10-07T04:17:01.936Z,12.65
2018-10-07T04:17:39.889Z,13.13
2018-10-07T04:18:17.721Z,12.77
2018-10-07T04:18:55.545Z,13.30
2018-10-07T04:19:33.512Z,12.47
2018-10-07T04:20:13.448Z,13.87
2018-10-07T04:20:51.390Z,13.60
2018-10-07T04:21:29.382Z,12.63
2018-10-07T04:22:07.301Z,12.50
2018-10-07T04:22:45.187Z,14.47
2018-10-07T04:23:23.222Z,14.20
2018-10-07T04:24:01.189Z,12.90
2018-10-07T04:24:39.364Z,13.83
2018-10-07T04:25:17.374Z,14.18
2018-10-07T04:25:55.328Z,13.38
2018-10-07T04:26:33.556Z,14.20
2018-10-07T04:27:11.394Z,14.07
2018-10-07T04:27:49.418Z,13.85
2018-10-07T04:28:27.623Z,14.73
2018-10-07T04:29:05.648Z,13.65
2018-10-07T04:29:43.618Z,13.15
2018-10-07T04:30:21.954Z,14.50
2018-10-07T04:30:59.871Z,15.03
2018-10-07T04:31:37.835Z,15.50
2018-10-07T04:32:16.867Z,14.57
2018-10-07T04:32:55.004Z,15.40
2018-10-07T04:33:32.940Z,15.00
2018-10-07T04:34:11.109Z,14.13
2018-10-07T04:34:49.090Z,15.60
2018-10-07T04:35:27.642Z,14.58
2018-10-07T04:36:05.631Z,14.38
2018-10-07T04:36:43.492Z,16.23
2018-10-07T04:37:21.530Z,15.38
2018-10-07T04:37:59.796Z,15.53
2018-10-07T04:38:37.725Z,15.23
2018-10-07T04:39:16.282Z,16.30
2018-10-07T04:39:55.434Z,15.88
2018-10-07T04:40:34.411Z,16.05
2018-10-07T04:41:13.059Z,16.75
2018-10-07T04:41:50.902Z,15.05
2018-10-07T04:42:29.039Z,15.68
2018-10-07T04:43:08.747Z,15.88
2018-10-07T04:43:46.855Z,16.15
2018-10-07T04:44:25.044Z,14.15
2018-10-07T04:45:02.929Z,15.00
2018-10-07T04:45:40.847Z,14.30
2018-10-07T04:46:18.864Z,13.83
2018-10-07T04:46:56.927Z,14.93
2018-10-07T04:47:35.012Z,12.30
2018-10-07T04:48:13.300Z,12.93
2018-10-07T04:48:51.564Z,13.40
2018-10-07T04:49:29.496Z,12.87
2018-10-07T04:50:07.542Z,13.33
2018-10-07T04:50:45.537Z,13.07
2018-10-07T04:51:23.455Z,12.60
2018-10-07T04:52:01.500Z,13.13
2018-10-07T04:52:39.789Z,13.10
2018-10-07T04:53:18.853Z,11.57
2018-10-07T04:53:56.907Z,13.55
2018-10-07T04:54:34.839Z,13.22
2018-10-07T04:55:12.775Z,12.57
2018-10-07T04:55:50.738Z,12.50
2018-10-07T04:56:28.679Z,13.10
2018-10-07T04:57:06.569Z,13.30
2018-10-07T04:57:44.636Z,12.57
2018-10-07T04:58:23.345Z,12.47
2018-10-07T04:59:02.369Z,12.95
2018-10-07T04:59:40.261Z,11.88
2018-10-07T05:00:19.260Z,13.62
2018-10-07T05:00:57.287Z,13.17
2018-10-07T05:01:35.820Z,14.17
2018-10-07T05:02:13.748Z,12.80
2018-10-07T05:02:51.673Z,13.33
2018-10-07T05:03:29.533Z,13.40
2018-10-07T05:04:07.646Z,12.88
2018-10-07T05:04:45.984Z,14.13
2018-10-07T05:05:23.916Z,11.90
2018-10-07T05:06:01.962Z,12.80
2018-10-07T05:06:39.917Z,13.53
2018-10-07T05:07:17.881Z,13.72
2018-10-07T05:07:56.107Z,13.32
2018-10-07T05:08:34.233Z,14.03
2018-10-07T05:09:13.336Z,13.83
2018-10-07T05:09:51.350Z,13.62
2018-10-07T05:11:03.043Z,14.58
2018-10-07T05:11:41.600Z,13.18
2018-10-07T05:12:21.039Z,13.50
2018-10-07T05:12:59.092Z,13.98
2018-10-07T05:13:54.456Z,12.45
2018-10-07T05:14:32.429Z,14.85
2018-10-07T05:15:11.951Z,13.43
2018-10-07T05:15:51.783Z,12.95
2018-10-07T05:16:49.704Z,14.70
2018-10-07T05:17:27.657Z,13.20
2018-10-07T05:18:05.506Z,13.03
2018-10-07T05:18:43.324Z,14.83
2018-10-07T05:19:21.264Z,12.85
2018-10-07T05:19:59.117Z,13.70
2018-10-07T05:20:37.451Z,13.37
2018-10-07T05:21:15.435Z,14.03
2018-10-07T05:21:53.329Z,12.85
2018-10-07T05:22:31.205Z,12.75
2018-10-07T05:23:09.120Z,14.27
2018-10-07T05:23:47.017Z,13.57
2018-10-07T05:24:24.976Z,13.20
2018-10-07T05:25:02.900Z,12.95
2018-10-07T05:25:40.828Z,12.90
2018-10-07T05:26:18.956Z,13.58
2018-10-07T05:26:57.040Z,13.20
2018-10-07T05:27:34.934Z,14.03
2018-10-07T05:28:12.766Z,13.67
2018-10-07T05:28:52.589Z,13.47
2018-10-07T05:29:30.552Z,13.30
2018-10-07T05:30:09.253Z,12.90
2018-10-07T05:30:47.117Z,12.98
2018-10-07T05:31:25.942Z,12.70
2018-10-07T05:32:03.852Z,12.80
2018-10-07T05:32:41.672Z,12.65
2018-10-07T05:33:19.646Z,12.90
2018-10-07T05:33:57.648Z,12.47
2018-10-07T05:34:35.540Z,12.30
2018-10-07T05:35:13.482Z,12.35
2018-10-07T05:35:51.580Z,13.40
2018-10-07T05:36:29.474Z,11.63
2018-10-07T05:37:07.405Z,12.63
2018-10-07T05:37:45.262Z,14.17
2018-10-07T05:38:23.224Z,11.95
2018-10-07T05:39:01.170Z,12.60
2018-10-07T05:39:39.043Z,12.90
2018-10-07T05:40:18.089Z,12.68
2018-10-07T05:40:56.034Z,12.98
2018-10-07T05:41:33.880Z,13.90
2018-10-07T05:42:11.702Z,13.45
2018-10-07T05:42:49.583Z,13.65
2018-10-07T05:43:27.441Z,13.60
2018-10-07T05:44:05.320Z,14.03
2018-10-07T05:44:43.516Z,12.95
2018-10-07T05:45:21.488Z,13.33
2018-10-07T05:45:59.426Z,13.20
2018-10-07T05:46:38.266Z,12.43
2018-10-07T05:47:16.240Z,13.40
2018-10-07T05:47:54.158Z,13.40
2018-10-07T05:48:32.065Z,12.90
2018-10-07T05:49:10.029Z,13.27
2018-10-07T05:49:49.115Z,14.30
2018-10-07T05:50:27.161Z,13.80
2018-10-07T05:51:05.114Z,13.37
2018-10-07T05:51:43.319Z,14.33
2018-10-07T05:52:21.212Z,13.30
2018-10-07T05:52:59.295Z,14.00
2018-10-07T05:53:37.180Z,13.93
2018-10-07T05:54:16.065Z,13.10
2018-10-07T05:54:54.044Z,12.60
2018-10-07T05:55:33.354Z,13.70
2018-10-07T05:56:11.658Z,13.53
2018-10-07T05:56:49.569Z,14.30
2018-10-07T05:57:27.661Z,15.03
2018-10-07T05:58:07.120Z,15.57
2018-10-07T05:58:45.447Z,14.63
2018-10-07T05:59:23.348Z,15.10
2018-10-07T06:00:01.435Z,14.70
2018-10-07T06:00:40.763Z,14.90
2018-10-07T06:01:25.658Z,15.72
2018-10-07T06:02:05.760Z,14.58
2018-10-07T06:02:45.774Z,15.87
2018-10-07T06:03:29.698Z,15.53
2018-10-07T06:04:30.429Z,15.80
2018-10-07T06:05:08.317Z,15.40
2018-10-07T06:05:46.426Z,15.57
2018-10-07T06:06:24.324Z,15.60
2018-10-07T06:07:04.649Z,16.10
2018-10-07T06:07:42.856Z,14.93
2018-10-07T06:08:22.204Z,15.75
2018-10-07T06:09:01.341Z,17.03
2018-10-07T06:09:42.171Z,14.90
2018-10-07T06:10:20.061Z,16.30
2018-10-07T06:10:58.007Z,15.40
2018-10-07T06:11:35.941Z,14.55
2018-10-07T06:12:13.798Z,15.32
2018-10-07T06:12:51.598Z,15.13
2018-10-07T06:13:29.484Z,16.77
2018-10-07T06:14:07.397Z,16.97
2018-10-07T06:14:54.481Z,16.63
2018-10-07T06:15:36.220Z,17.53
2018-10-07T06:16:14.128Z,15.07
2018-10-07T06:16:52.031Z,16.43
2018-10-07T06:17:29.933Z,16.40
2018-10-07T06:18:07.830Z,16.73
2018-10-07T06:18:45.708Z,16.00
2018-10-07T06:19:23.576Z,17.70
2018-10-07T06:20:01.416Z,17.23
2018-10-07T06:20:39.419Z,15.50
2018-10-07T06:21:17.339Z,17.15
2018-10-07T06:21:55.176Z,17.90
2018-10-07T06:22:33.126Z,16.67
2018-10-07T06:23:11.041Z,17.40
2018-10-07T06:23:49.374Z,17.67
2018-10-07T06:24:27.232Z,18.10
2018-10-07T06:25:05.230Z,17.50
2018-10-07T06:25:43.134Z,16.10
2018-10-07T06:26:21.032Z,17.60
2018-10-07T06:26:58.988Z,15.33
2018-10-07T06:27:37.056Z,16.70
2018-10-07T06:28:15.032Z,17.00
2018-10-07T06:28:53.242Z,16.40
2018-10-07T06:29:31.177Z,16.13
2018-10-07T06:30:09.469Z,17.17
2018-10-07T06:30:47.276Z,17.90
2018-10-07T06:31:25.144Z,17.10
2018-10-07T06:32:03.007Z,17.03
2018-10-07T06:32:40.867Z,16.37
2018-10-07T06:33:18.718Z,17.17
2018-10-07T06:33:56.736Z,16.53
2018-10-07T06:34:34.642Z,16.80
2018-10-07T06:35:12.594Z,17.10
2018-10-07T06:35:50.425Z,16.90
2018-10-07T06:36:28.339Z,16.67
2018-10-07T06:37:06.244Z,16.33
2018-10-07T06:37:44.179Z,17.20
2018-10-07T06:38:22.034Z,16.20
2018-10-07T06:38:59.871Z,17.23
2018-10-07T06:39:37.718Z,17.10
2018-10-07T06:40:15.646Z,16.13
2018-10-07T06:40:53.501Z,17.00
2018-10-07T06:41:31.337Z,15.80
2018-10-07T06:42:09.323Z,16.43
2018-10-07T06:42:47.213Z,16.67
2018-10-07T06:43:25.254Z,16.80
2018-10-07T06:44:03.483Z,17.30
2018-10-07T06:44:42.815Z,17.10
2018-10-07T06:45:20.769Z,16.20
2018-10-07T06:45:58.731Z,16.10
2018-10-07T06:46:36.706Z,16.67
2018-10-07T06:47:14.686Z,17.73
2018-10-07T06:47:52.702Z,17.07
2018-10-07T06:48:30.563Z,15.57
2018-10-07T06:49:08.604Z,15.63
2018-10-07T06:49:47.490Z,15.47
2018-10-07T06:50:25.377Z,16.30
2018-10-07T06:51:03.569Z,14.83
2018-10-07T06:51:41.415Z,15.10
2018-10-07T06:52:19.311Z,14.70
2018-10-07T06:52:57.249Z,16.60
2018-10-07T06:53:35.511Z,14.60
2018-10-07T06:54:14.995Z,15.27
2018-10-07T06:54:52.830Z,15.63
2018-10-07T06:55:30.684Z,14.87
2018-10-07T06:56:08.661Z,14.80
2018-10-07T06:56:46.547Z,16.03
2018-10-07T06:57:24.415Z,14.80
2018-10-07T06:58:02.393Z,15.03
2018-10-07T06:58:40.230Z,15.47
2018-10-07T06:59:18.077Z,14.17
2018-10-07T06:59:55.930Z,14.67
2018-10-07T07:00:33.749Z,15.60
2018-10-07T07:01:11.909Z,15.23
2018-10-07T07:01:49.763Z,14.97
2018-10-07T07:02:27.724Z,14.30
2018-10-07T07:03:06.872Z,14.23
2018-10-07T07:03:44.793Z,13.80
2018-10-07T07:04:22.668Z,15.60
2018-10-07T07:05:01.632Z,15.23
2018-10-07T07:05:39.532Z,13.90
2018-10-07T07:06:17.452Z,15.67
2018-10-07T07:06:55.385Z,15.23
2018-10-07T07:07:33.297Z,15.03
2018-10-07T07:08:11.389Z,14.33
2018-10-07T07:08:49.983Z,14.80
2018-10-07T07:09:28.984Z,15.80
2018-10-07T07:10:06.933Z,14.80
2018-10-07T07:10:44.961Z,14.50
2018-10-07T07:11:23.100Z,14.78
2018-10-07T07:12:01.012Z,13.87
2018-10-07T07:12:38.828Z,13.70
2018-10-07T07:13:16.743Z,14.70
2018-10-07T07:14:00.633Z,13.80
2018-10-07T07:14:38.529Z,13.30
2018-10-07T07:15:16.534Z,15.33
2018-10-07T07:15:54.550Z,13.98
2018-10-07T07:16:32.451Z,14.43
2018-10-07T07:17:10.368Z,14.80
2018-10-07T07:17:48.246Z,13.37
2018-10-07T07:18:26.382Z,14.10
2018-10-07T07:19:04.399Z,14.33
2018-10-07T07:19:42.318Z,13.80
2018-10-07T07:20:20.334Z,16.67
2018-10-07T07:20:58.324Z,13.80
2018-10-07T07:21:36.513Z,13.97
2018-10-07T07:22:14.423Z,14.20
2018-10-07T07:22:52.398Z,15.47
2018-10-07T07:23:30.257Z,13.40
2018-10-07T07:24:08.204Z,15.03
2018-10-07T07:24:46.200Z,14.27
2018-10-07T07:25:24.363Z,14.07
2018-10-07T07:26:02.386Z,14.23
2018-10-07T07:26:40.323Z,13.80
2018-10-07T07:27:18.188Z,14.80
2018-10-07T07:27:56.113Z,15.00
2018-10-07T07:28:34.257Z,13.87
2018-10-07T07:29:12.105Z,13.87
2018-10-07T07:29:50.222Z,13.90
2018-10-07T07:30:28.081Z,13.90
2018-10-07T07:31:06.321Z,15.07
2018-10-07T07:31:45.410Z,14.50
2018-10-07T07:32:23.350Z,15.00
2018-10-07T07:33:02.609Z,14.10
2018-10-07T07:33:40.507Z,15.03
2018-10-07T07:34:18.389Z,15.00
2018-10-07T07:34:56.317Z,15.53
2018-10-07T07:35:34.274Z,14.73
2018-10-07T07:36:12.351Z,13.60
2018-10-07T07:36:51.152Z,15.97
2018-10-07T07:37:29.497Z,14.00
2018-10-07T07:38:07.493Z,14.20
2018-10-07T07:38:46.342Z,15.07
2018-10-07T07:39:24.286Z,13.93
2018-10-07T07:40:02.180Z,15.50
2018-10-07T07:40:41.320Z,14.10
2018-10-07T07:41:19.247Z,14.27
2018-10-07T07:41:57.135Z,14.00
2018-10-07T07:42:35.168Z,14.07
2018-10-07T07:43:13.031Z,14.47
2018-10-07T07:43:51.252Z,14.63
2018-10-07T07:44:29.216Z,15.00
2018-10-07T07:45:07.133Z,14.47
2018-10-07T07:45:44.996Z,16.40
2018-10-07T07:46:22.906Z,14.43
2018-10-07T07:47:01.051Z,15.00
2018-10-07T07:47:38.894Z,14.77
2018-10-07T07:48:16.844Z,13.97
2018-10-07T07:48:54.826Z,13.43
2018-10-07T07:49:32.692Z,14.40
2018-10-07T07:50:10.675Z,14.40
2018-10-07T07:50:48.532Z,15.40
2018-10-07T07:51:26.571Z,14.33
2018-10-07T07:52:05.205Z,16.30
2018-10-07T07:52:43.040Z,15.60
2018-10-07T07:53:21.475Z,14.00
2018-10-07T07:53:59.315Z,16.30
2018-10-07T07:54:37.559Z,14.40
2018-10-07T07:55:15.485Z,15.37
2018-10-07T07:55:53.534Z,14.10
2018-10-07T07:56:31.564Z,15.07
2018-10-07T07:57:09.555Z,14.70
2018-10-07T07:57:47.473Z,14.47
2018-10-07T07:58:25.340Z,14.30
2018-10-07T07:59:03.298Z,15.47
2018-10-07T07:59:41.286Z,14.67
2018-10-07T08:00:19.218Z,15.43
2018-10-07T08:00:57.487Z,15.97
2018-10-07T08:01:35.564Z,15.03
2018-10-07T08:02:13.491Z,14.83
2018-10-07T08:02:51.562Z,14.60
2018-10-07T08:03:31.381Z,17.20
2018-10-07T08:04:09.279Z,15.37
2018-10-07T08:04:47.230Z,15.03
2018-10-07T08:05:25.152Z,15.60
2018-10-07T08:06:03.146Z,16.13
2018-10-07T08:06:41.287Z,15.77
2018-10-07T08:07:19.188Z,15.00
2018-10-07T08:07:57.161Z,16.17
2018-10-07T08:08:35.222Z,15.37
2018-10-07T08:09:13.894Z,14.30
2018-10-07T08:09:51.969Z,14.53
2018-10-07T08:10:29.924Z,15.07
2018-10-07T08:11:07.819Z,15.30
2018-10-07T08:11:45.771Z,15.60
2018-10-07T08:12:23.725Z,15.50
2018-10-07T08:13:01.821Z,16.30
2018-10-07T08:13:39.875Z,15.57
2018-10-07T08:14:17.840Z,14.43
2018-10-07T08:14:55.812Z,15.70
2018-10-07T08:15:33.859Z,15.33
2018-10-07T08:16:12.080Z,15.33
2018-10-07T08:16:50.068Z,15.43
2018-10-07T08:17:28.133Z,15.90
2018-10-07T08:18:06.174Z,15.67
2018-10-07T08:18:44.113Z,15.80
2018-10-07T08:19:22.147Z,17.17
2018-10-07T08:20:00.258Z,16.20
2018-10-07T08:20:38.258Z,16.13
2018-10-07T08:21:16.270Z,16.57
2018-10-07T08:21:54.335Z,17.03
2018-10-07T08:22:32.326Z,14.87
2018-10-07T08:23:10.337Z,16.60
2018-10-07T08:23:48.295Z,15.77
2018-10-07T08:24:26.465Z,15.70
2018-10-07T08:25:04.353Z,15.87
2018-10-07T08:25:42.269Z,16.40
2018-10-07T08:26:34.310Z,16.27
2018-10-07T08:27:12.265Z,15.87
2018-10-07T08:27:50.685Z,14.60
2018-10-07T08:28:28.811Z,15.60
2018-10-07T08:29:06.892Z,15.77
2018-10-07T08:29:44.940Z,15.27
2018-10-07T08:30:23.012Z,15.87
2018-10-07T08:31:00.888Z,16.90
2018-10-07T08:31:38.865Z,16.70
2018-10-07T08:32:16.985Z,16.42
2018-10-07T08:32:54.973Z,15.63